Time;durP1;ratioP1;P1;durP2;ratioP2;P2;SDS_P1;SDS_P2;PMS_P1;PMS_P2;Temp;Humidity;BMP_temperature;BMP_pressure;BME280_temperature;BME280_humidity;BME280_pressure;Samples;Min_cycle;Max_cycle;Signal;HPM_P1;HPM_P2
2021/06/13 00:00:59;;;;;;;13.07;9.33;;;12.90;99.90;;;;;;5080152;28;20204;-84
2021/06/13 00:03:28;;;;;;;12.03;9.73;;;12.90;99.90;;;;;;5081970;28;20208;-86
2021/06/13 00:06:00;;;;;;;13.10;9.03;;;12.90;99.90;;;;;;5075805;28;20304;-85
2021/06/13 00:08:28;;;;;;;13.63;8.30;;;13.00;99.90;;;;;;5072980;28;20201;-84
2021/06/13 00:10:57;;;;;;;9.13;8.10;;;13.00;99.90;;;;;;5075061;28;20575;-83
2021/06/13 00:13:26;;;;;;;11.57;8.10;;;12.90;99.90;;;;;;5080028;28;20204;-83
2021/06/13 00:15:58;;;;;;;11.10;8.03;;;12.90;99.90;;;;;;5077071;28;20205;-84
2021/06/13 00:18:27;;;;;;;11.93;8.03;;;12.80;99.90;;;;;;5073414;28;20203;-84
2021/06/13 00:20:55;;;;;;;12.50;8.87;;;12.90;99.90;;;;;;5077206;28;20201;-85
2021/06/13 00:23:24;;;;;;;10.57;7.83;;;12.80;99.90;;;;;;5077530;28;21481;-83
2021/06/13 00:26:12;;;;;;;10.90;8.57;;;12.80;99.90;;;;;;5075521;28;20227;-85
2021/06/13 00:28:41;;;;;;;11.27;8.27;;;12.80;99.90;;;;;;5070049;28;20205;-84
2021/06/13 00:31:11;;;;;;;17.10;8.33;;;12.70;99.90;;;;;;5082362;28;20209;-86
2021/06/13 00:33:40;;;;;;;10.20;7.70;;;12.70;99.90;;;;;;5092115;28;20205;-83
2021/06/13 00:36:08;;;;;;;10.07;7.83;;;12.70;99.90;;;;;;5083334;28;20260;-83
2021/06/13 00:38:36;;;;;;;11.13;8.40;;;12.70;99.90;;;;;;5075256;28;20204;-84
2021/06/13 00:41:05;;;;;;;10.83;8.07;;;12.70;99.90;;;;;;5075571;28;20216;-86
2021/06/13 00:43:33;;;;;;;12.23;7.77;;;12.70;99.90;;;;;;5080447;28;20224;-83
2021/06/13 00:46:02;;;;;;;9.83;7.63;;;12.70;99.90;;;;;;5081601;28;20384;-82
2021/06/13 00:48:35;;;;;;;9.63;6.97;;;12.70;99.90;;;;;;5077329;28;21034;-84
2021/06/13 00:51:03;;;;;;;12.33;7.57;;;12.70;99.90;;;;;;5081934;28;20219;-84
2021/06/13 00:53:32;;;;;;;12.20;6.80;;;12.60;99.90;;;;;;5070608;28;20204;-86
2021/06/13 00:56:01;;;;;;;10.37;7.50;;;12.60;99.90;;;;;;5078174;28;20233;-84
2021/06/13 00:58:29;;;;;;;12.50;7.13;;;12.60;99.90;;;;;;5069063;28;20490;-84
2021/06/13 01:00:57;;;;;;;8.53;7.47;;;12.40;99.90;;;;;;5072429;28;20201;-85
2021/06/13 01:03:25;;;;;;;12.07;7.93;;;12.40;99.90;;;;;;5079137;28;20246;-87
2021/06/13 01:05:55;;;;;;;11.50;7.33;;;12.40;99.90;;;;;;5071068;28;20236;-85
2021/06/13 01:08:30;;;;;;;12.03;7.13;;;12.30;99.90;;;;;;5072302;28;20208;-86
2021/06/13 01:11:11;;;;;;;13.40;7.97;;;12.30;99.90;;;;;;5071031;28;20953;-83
2021/06/13 01:13:48;;;;;;;8.73;7.07;;;12.30;99.90;;;;;;5074293;28;20655;-84
2021/06/13 01:16:26;;;;;;;21.87;8.30;;;12.30;99.90;;;;;;5075021;28;20371;-86
2021/06/13 01:18:59;;;;;;;13.20;7.90;;;12.20;99.90;;;;;;5095735;28;20421;-84
2021/06/13 01:21:35;;;;;;;11.50;7.40;;;12.20;99.90;;;;;;5074795;28;20624;-84
2021/06/13 01:24:08;;;;;;;8.63;7.73;;;12.20;99.90;;;;;;5078383;28;20204;-83
2021/06/13 01:27:08;;;;;;;11.83;8.73;;;12.20;99.90;;;;;;5078804;28;20238;-82
2021/06/13 01:29:39;;;;;;;12.90;7.47;;;12.10;99.90;;;;;;5066393;28;20208;-85
2021/06/13 01:32:10;;;;;;;8.33;7.47;;;12.10;99.90;;;;;;5085734;28;20329;-85
2021/06/13 01:34:44;;;;;;;14.47;7.87;;;12.10;99.90;;;;;;5078166;28;20225;-84
2021/06/13 01:37:15;;;;;;;13.17;8.07;;;12.00;99.90;;;;;;5071245;28;20204;-82
2021/06/13 01:39:47;;;;;;;14.27;8.03;;;12.00;99.90;;;;;;5074905;28;20204;-83
2021/06/13 01:42:17;;;;;;;13.37;8.23;;;12.00;99.90;;;;;;5072930;28;20232;-83
2021/06/13 01:44:51;;;;;;;12.63;8.37;;;12.00;99.90;;;;;;5072503;28;20249;-83
2021/06/13 01:47:20;;;;;;;12.27;7.47;;;12.00;99.90;;;;;;5066571;28;20704;-83
2021/06/13 01:49:50;;;;;;;14.60;7.63;;;12.00;99.90;;;;;;5068846;28;20208;-84
2021/06/13 01:52:19;;;;;;;12.03;7.27;;;12.00;99.90;;;;;;5076959;28;20783;-84
2021/06/13 01:54:49;;;;;;;9.90;7.57;;;12.00;99.90;;;;;;5077617;28;20443;-84
2021/06/13 01:57:18;;;;;;;10.07;8.00;;;11.90;99.90;;;;;;5094521;28;20189;-82
2021/06/13 01:59:48;;;;;;;10.03;7.50;;;11.90;99.90;;;;;;5088735;28;20193;-84
2021/06/13 02:02:17;;;;;;;10.87;7.27;;;11.90;99.90;;;;;;5093305;28;20255;-82
2021/06/13 02:04:46;;;;;;;13.17;7.63;;;11.80;99.90;;;;;;5093358;28;20204;-82
2021/06/13 02:07:16;;;;;;;14.33;8.40;;;11.80;99.90;;;;;;5093120;28;20193;-83
2021/06/13 02:09:45;;;;;;;9.40;7.30;;;11.80;99.90;;;;;;5094674;28;20198;-83
2021/06/13 02:12:14;;;;;;;10.20;7.50;;;11.80;99.90;;;;;;5093913;28;20256;-86
2021/06/13 02:14:47;;;;;;;10.10;7.80;;;11.80;99.90;;;;;;5091151;28;20205;-83
2021/06/13 02:17:18;;;;;;;11.97;7.17;;;11.80;99.90;;;;;;5080543;28;20213;-84
2021/06/13 02:19:47;;;;;;;15.80;7.70;;;11.80;99.90;;;;;;5087582;28;20205;-84
2021/06/13 02:22:18;;;;;;;13.47;7.60;;;11.70;99.90;;;;;;5093041;28;20236;-85
2021/06/13 02:24:48;;;;;;;15.10;8.07;;;11.80;99.90;;;;;;5091629;28;21374;-85
2021/06/13 02:27:21;;;;;;;9.50;7.50;;;11.70;99.90;;;;;;5083568;28;20444;-83
2021/06/13 02:29:50;;;;;;;8.73;7.50;;;11.70;99.90;;;;;;5089971;28;20209;-83
2021/06/13 02:32:21;;;;;;;9.60;6.60;;;11.80;99.90;;;;;;5092293;28;20803;-82
2021/06/13 02:34:50;;;;;;;11.07;6.27;;;11.80;99.90;;;;;;5090683;28;20230;-84
2021/06/13 02:37:19;;;;;;;10.60;6.27;;;11.80;99.90;;;;;;5080204;28;20209;-83
2021/06/13 02:39:47;;;;;;;10.97;6.60;;;11.80;99.90;;;;;;5083136;28;20227;-85
2021/06/13 02:42:15;;;;;;;9.67;6.73;;;11.70;99.90;;;;;;5077738;28;20233;-83
2021/06/13 02:44:45;;;;;;;10.63;6.60;;;11.80;99.90;;;;;;5076025;28;21490;-86
2021/06/13 02:47:13;;;;;;;10.20;7.10;;;11.80;99.90;;;;;;5077927;28;20200;-84
2021/06/13 02:49:43;;;;;;;10.83;6.63;;;11.80;99.90;;;;;;5076013;28;20537;-84
2021/06/13 02:52:20;;;;;;;12.87;6.93;;;11.90;99.90;;;;;;5081447;28;20209;-82
2021/06/13 02:54:49;;;;;;;8.63;6.03;;;11.90;99.90;;;;;;5077593;28;20227;-84
2021/06/13 02:57:27;;;;;;;9.43;7.17;;;11.90;99.90;;;;;;5080118;28;20844;-83
2021/06/13 03:00:00;;;;;;;13.03;6.90;;;11.90;99.90;;;;;;5075068;28;20228;-83
2021/06/13 03:02:30;;;;;;;10.37;6.83;;;11.90;99.90;;;;;;5097202;28;20251;-83
2021/06/13 03:05:03;;;;;;;11.97;6.93;;;12.00;99.90;;;;;;5090432;28;20203;-84
2021/06/13 03:07:32;;;;;;;12.33;6.40;;;12.00;99.90;;;;;;5077489;28;20265;-84
2021/06/13 03:10:02;;;;;;;10.30;6.47;;;12.00;99.90;;;;;;5074290;28;20205;-82
2021/06/13 03:12:30;;;;;;;12.97;6.37;;;12.00;99.90;;;;;;5072636;28;20253;-86
2021/06/13 03:15:00;;;;;;;11.53;6.37;;;12.10;99.90;;;;;;5073997;28;20215;-83
2021/06/13 03:17:31;;;;;;;9.13;6.00;;;12.10;99.90;;;;;;5074741;28;20200;-84
2021/06/13 03:20:01;;;;;;;9.97;5.43;;;12.10;99.90;;;;;;5077768;28;20220;-83
2021/06/13 03:22:33;;;;;;;10.43;5.90;;;12.10;99.90;;;;;;5088330;28;20494;-84
2021/06/13 03:25:02;;;;;;;11.20;5.70;;;12.20;99.90;;;;;;5083493;28;20211;-84
2021/06/13 03:27:32;;;;;;;14.47;6.40;;;12.20;99.90;;;;;;5079984;28;20239;-86
2021/06/13 03:30:01;;;;;;;11.17;5.80;;;12.20;99.90;;;;;;5081461;28;20260;-85
2021/06/13 03:32:29;;;;;;;7.87;5.90;;;12.20;99.90;;;;;;5084535;28;20200;-82
2021/06/13 03:34:58;;;;;;;8.93;5.23;;;12.30;99.90;;;;;;5087099;28;20217;-84
2021/06/13 03:37:29;;;;;;;9.53;5.87;;;12.30;99.90;;;;;;5077567;28;20205;-85
2021/06/13 03:39:59;;;;;;;10.90;5.33;;;12.30;98.70;;;;;;5082082;28;20212;-82
2021/06/13 03:42:30;;;;;;;9.57;5.57;;;12.30;98.60;;;;;;5082787;28;20204;-83
2021/06/13 03:44:59;;;;;;;12.00;6.07;;;12.40;99.50;;;;;;5077274;28;20235;-84
2021/06/13 03:47:31;;;;;;;11.40;5.43;;;12.40;99.50;;;;;;5098563;28;20278;-84
2021/06/13 03:50:02;;;;;;;9.83;4.77;;;12.40;98.90;;;;;;5091194;28;20198;-82
2021/06/13 03:52:32;;;;;;;10.67;4.47;;;12.40;98.10;;;;;;5087417;28;20212;-83
2021/06/13 03:55:01;;;;;;;8.47;4.57;;;12.40;97.90;;;;;;5081503;28;20269;-82
2021/06/13 03:57:31;;;;;;;8.57;4.93;;;12.40;97.90;;;;;;5082902;28;20719;-84
2021/06/13 04:00:01;;;;;;;6.10;4.70;;;12.50;96.60;;;;;;5077862;28;20467;-86
2021/06/13 04:02:32;;;;;;;9.63;4.60;;;12.60;97.10;;;;;;5075180;28;20258;-83
2021/06/13 04:05:02;;;;;;;11.10;4.67;;;12.50;96.60;;;;;;5073952;28;20196;-82
2021/06/13 04:07:33;;;;;;;9.87;5.63;;;12.60;96.20;;;;;;5072257;28;20205;-83
2021/06/13 04:10:02;;;;;;;6.43;4.43;;;12.60;95.80;;;;;;5073508;28;20224;-84
2021/06/13 04:12:32;;;;;;;8.33;5.20;;;12.60;96.50;;;;;;5076368;28;20200;-85
2021/06/13 04:15:03;;;;;;;8.63;4.73;;;12.60;97.40;;;;;;5077020;28;20201;-83
2021/06/13 04:17:33;;;;;;;8.80;4.50;;;12.60;97.30;;;;;;5080893;28;20197;-84
2021/06/13 04:20:04;;;;;;;10.37;4.83;;;12.60;96.50;;;;;;5072407;28;20651;-84
2021/06/13 04:22:34;;;;;;;11.97;4.93;;;12.60;96.20;;;;;;5086056;28;20213;-83
2021/06/13 04:25:02;;;;;;;6.53;4.60;;;12.70;96.00;;;;;;5074967;28;20244;-83
2021/06/13 04:27:35;;;;;;;12.37;4.60;;;12.90;96.10;;;;;;5079684;28;20205;-82
2021/06/13 04:30:05;;;;;;;11.73;4.60;;;13.00;94.30;;;;;;5094221;28;21142;-86
2021/06/13 04:32:34;;;;;;;7.97;4.40;;;13.10;94.10;;;;;;5095778;28;20182;-84
2021/06/13 04:35:03;;;;;;;10.07;4.40;;;13.10;94.50;;;;;;5085925;28;20312;-83
2021/06/13 04:37:34;;;;;;;11.47;5.10;;;13.00;94.20;;;;;;5079339;28;20201;-85
2021/06/13 04:40:03;;;;;;;8.20;4.33;;;13.00;94.40;;;;;;5078154;28;20223;-82
2021/06/13 04:42:32;;;;;;;6.97;3.70;;;12.90;94.30;;;;;;5091993;28;20660;-83
2021/06/13 04:45:06;;;;;;;6.47;3.87;;;13.00;94.30;;;;;;5078448;28;20282;-83
2021/06/13 04:47:35;;;;;;;6.63;4.10;;;12.90;94.90;;;;;;5086097;28;20242;-84
2021/06/13 04:50:07;;;;;;;8.30;4.50;;;12.90;94.60;;;;;;5071580;28;20200;-84
2021/06/13 04:52:39;;;;;;;9.40;4.53;;;12.90;95.70;;;;;;5081633;28;20209;-83
2021/06/13 04:55:19;;;;;;;11.10;4.60;;;13.00;95.30;;;;;;5078559;28;20212;-83
2021/06/13 04:58:13;;;;;;;9.33;4.00;;;13.00;95.00;;;;;;5070319;28;20208;-84
2021/06/13 05:00:42;;;;;;;8.23;4.17;;;13.00;95.30;;;;;;5082330;28;20295;-84
2021/06/13 05:03:10;;;;;;;9.50;4.50;;;12.90;96.00;;;;;;5070497;28;20204;-83
2021/06/13 05:05:39;;;;;;;12.40;5.03;;;12.80;98.20;;;;;;5078401;28;20228;-82
2021/06/13 05:08:14;;;;;;;9.90;4.67;;;12.60;99.90;;;;;;5071135;28;20258;-84
2021/06/13 05:10:43;;;;;;;8.43;4.80;;;12.50;99.90;;;;;;5076971;28;20375;-84
2021/06/13 05:13:15;;;;;;;10.60;4.77;;;12.40;99.90;;;;;;5075789;28;20567;-83
2021/06/13 05:15:45;;;;;;;10.50;5.30;;;12.30;99.90;;;;;;5077187;28;20243;-85
2021/06/13 05:18:14;;;;;;;12.10;5.47;;;12.20;99.90;;;;;;5075867;28;20208;-82
2021/06/13 05:20:43;;;;;;;11.20;4.67;;;12.10;99.90;;;;;;5073606;28;20232;-84
2021/06/13 05:23:14;;;;;;;10.27;5.60;;;12.10;99.90;;;;;;5077568;28;20751;-85
2021/06/13 05:25:42;;;;;;;8.70;5.20;;;12.00;99.90;;;;;;5082401;28;20250;-83
2021/06/13 05:28:11;;;;;;;9.00;5.07;;;12.00;99.90;;;;;;5069279;28;20212;-84
2021/06/13 05:30:40;;;;;;;8.57;5.20;;;12.00;99.90;;;;;;5080933;28;20201;-83
2021/06/13 05:33:08;;;;;;;9.90;5.63;;;12.00;99.90;;;;;;5078390;28;20504;-84
2021/06/13 05:35:38;;;;;;;11.10;6.00;;;11.90;99.90;;;;;;5081817;28;20242;-83
2021/06/13 05:38:09;;;;;;;9.47;5.43;;;11.90;99.90;;;;;;5072626;28;20395;-84
2021/06/13 05:40:39;;;;;;;10.90;5.40;;;12.00;99.90;;;;;;5081615;28;20213;-83
2021/06/13 05:43:10;;;;;;;11.30;5.97;;;12.00;99.90;;;;;;5080151;28;20215;-85
2021/06/13 05:45:40;;;;;;;8.20;5.00;;;12.10;99.90;;;;;;5075674;28;20236;-83
2021/06/13 05:48:10;;;;;;;13.57;6.53;;;12.10;99.90;;;;;;5072483;28;20196;-85
2021/06/13 05:50:40;;;;;;;11.57;5.77;;;12.20;99.90;;;;;;5079939;28;20198;-82
2021/06/13 05:53:09;;;;;;;10.70;5.13;;;12.20;99.90;;;;;;5079011;28;20208;-83
2021/06/13 05:55:40;;;;;;;8.53;5.50;;;12.20;99.90;;;;;;5083743;28;20298;-84
2021/06/13 05:58:10;;;;;;;15.40;5.73;;;12.20;99.90;;;;;;5075254;28;20216;-83
2021/06/13 06:00:39;;;;;;;13.27;5.93;;;12.20;99.90;;;;;;5085534;28;20209;-84
2021/06/13 06:03:08;;;;;;;9.17;5.10;;;12.30;99.90;;;;;;5076909;28;20272;-84
2021/06/13 06:05:37;;;;;;;9.07;4.83;;;12.40;99.90;;;;;;5083238;28;20228;-83
2021/06/13 06:08:06;;;;;;;10.27;5.80;;;12.50;99.90;;;;;;5083203;28;20208;-84
2021/06/13 06:10:36;;;;;;;7.77;5.13;;;12.60;99.90;;;;;;5077633;28;20227;-83
2021/06/13 06:13:06;;;;;;;10.03;5.40;;;12.70;99.90;;;;;;5083302;28;20283;-84
2021/06/13 06:15:37;;;;;;;11.83;5.77;;;12.80;99.90;;;;;;5078331;28;20204;-83
2021/06/13 06:18:06;;;;;;;9.93;5.00;;;12.80;99.90;;;;;;5077520;28;20196;-84
2021/06/13 06:20:35;;;;;;;8.67;4.60;;;12.90;99.90;;;;;;5080681;28;20217;-84
2021/06/13 06:23:05;;;;;;;9.47;5.13;;;12.90;99.90;;;;;;5077980;28;20205;-84
2021/06/13 06:25:34;;;;;;;9.73;5.13;;;13.10;99.90;;;;;;5078611;28;20233;-83
2021/06/13 06:28:05;;;;;;;9.30;4.87;;;13.30;99.90;;;;;;5079950;28;20207;-83
2021/06/13 06:30:34;;;;;;;9.80;4.47;;;13.40;99.90;;;;;;5093534;28;20193;-82
2021/06/13 06:33:03;;;;;;;8.90;4.37;;;13.70;99.00;;;;;;5079298;28;20219;-84
2021/06/13 06:35:32;;;;;;;8.53;5.07;;;13.90;96.20;;;;;;5074492;28;20315;-83
2021/06/13 06:38:00;;;;;;;7.50;4.23;;;14.10;95.90;;;;;;5075069;28;20209;-84
2021/06/13 06:40:29;;;;;;;12.40;4.73;;;14.10;94.50;;;;;;5077443;28;20273;-83
2021/06/13 06:42:57;;;;;;;8.70;4.37;;;14.20;94.50;;;;;;5079102;28;20250;-82
2021/06/13 06:45:28;;;;;;;9.47;4.30;;;14.20;93.60;;;;;;5075026;28;20267;-86
2021/06/13 06:47:57;;;;;;;8.20;4.70;;;14.30;95.50;;;;;;5078056;28;20721;-84
2021/06/13 06:50:27;;;;;;;8.87;4.50;;;14.50;94.40;;;;;;5082998;28;20282;-84
2021/06/13 06:52:56;;;;;;;7.20;4.27;;;14.50;92.50;;;;;;5093946;28;20177;-83
2021/06/13 06:55:26;;;;;;;7.33;4.60;;;14.60;93.50;;;;;;5100416;28;20231;-84
2021/06/13 06:57:55;;;;;;;11.07;4.20;;;14.70;92.80;;;;;;5087769;28;20206;-84
2021/06/13 07:00:25;;;;;;;9.30;4.53;;;14.70;92.50;;;;;;5085974;28;20286;-84
2021/06/13 07:02:55;;;;;;;8.53;4.90;;;14.70;92.10;;;;;;5087344;28;20258;-84
2021/06/13 07:05:24;;;;;;;12.40;4.93;;;14.80;91.90;;;;;;5077747;28;20609;-86
2021/06/13 07:07:54;;;;;;;9.23;4.60;;;15.00;91.50;;;;;;5080848;28;20318;-82
2021/06/13 07:10:26;;;;;;;10.67;4.20;;;14.80;91.10;;;;;;5075408;28;20289;-83
2021/06/13 07:12:55;;;;;;;8.47;4.40;;;14.90;91.10;;;;;;5082617;28;20759;-82
2021/06/13 07:15:24;;;;;;;6.67;4.30;;;14.90;91.60;;;;;;5081229;28;20221;-85
2021/06/13 07:17:54;;;;;;;10.73;4.03;;;14.90;91.30;;;;;;5077147;28;20212;-82
2021/06/13 07:20:24;;;;;;;8.13;4.53;;;15.00;91.70;;;;;;5080558;28;20203;-85
2021/06/13 07:22:52;;;;;;;7.67;4.20;;;15.10;91.70;;;;;;5074714;28;20219;-84
2021/06/13 07:25:21;;;;;;;8.53;4.10;;;15.20;91.00;;;;;;5077106;28;20228;-84
2021/06/13 07:27:50;;;;;;;8.23;3.53;;;15.30;91.10;;;;;;5084160;28;20206;-81
2021/06/13 07:30:20;;;;;;;8.43;4.40;;;15.20;90.40;;;;;;5081073;28;20752;-84
2021/06/13 07:32:49;;;;;;;6.73;4.40;;;15.20;90.50;;;;;;5080538;28;20216;-84
2021/06/13 07:35:20;;;;;;;9.23;4.50;;;15.10;91.00;;;;;;5072310;28;20208;-83
2021/06/13 07:37:49;;;;;;;8.30;4.87;;;15.20;90.30;;;;;;5071749;28;20278;-84
2021/06/13 07:40:21;;;;;;;7.07;4.30;;;15.20;90.40;;;;;;5069794;28;20302;-84
2021/06/13 07:42:50;;;;;;;8.30;4.10;;;15.30;90.90;;;;;;5076901;28;20213;-82
2021/06/13 07:45:19;;;;;;;7.17;4.07;;;15.40;90.10;;;;;;5078899;28;20984;-82
2021/06/13 07:47:48;;;;;;;8.00;4.63;;;15.40;89.60;;;;;;5068398;28;20211;-83
2021/06/13 07:50:20;;;;;;;9.83;4.63;;;15.50;90.00;;;;;;5069457;28;20224;-83
2021/06/13 07:52:50;;;;;;;9.70;4.63;;;15.50;90.20;;;;;;5070581;28;20712;-84
2021/06/13 07:55:19;;;;;;;6.70;4.70;;;15.50;90.00;;;;;;5076131;28;20209;-84
2021/06/13 07:57:49;;;;;;;7.60;4.03;;;15.50;89.80;;;;;;5069320;28;20667;-83
2021/06/13 08:00:20;;;;;;;7.60;4.30;;;15.60;89.80;;;;;;5074041;28;20722;-83
2021/06/13 08:02:52;;;;;;;11.13;4.03;;;15.70;90.00;;;;;;5092693;28;20215;-86
2021/06/13 08:05:28;;;;;;;6.43;4.50;;;15.80;87.80;;;;;;5092009;28;20224;-87
2021/06/13 08:07:59;;;;;;;6.23;4.07;;;15.80;89.30;;;;;;5097545;28;20201;-82
2021/06/13 08:10:29;;;;;;;6.57;3.63;;;15.80;88.10;;;;;;5090050;28;20185;-86
2021/06/13 08:12:58;;;;;;;8.43;4.83;;;15.70;88.30;;;;;;5092159;28;20200;-83
2021/06/13 08:15:29;;;;;;;6.97;4.70;;;15.70;89.10;;;;;;5088644;28;20220;-84
2021/06/13 08:17:58;;;;;;;9.73;4.50;;;15.90;89.20;;;;;;5090352;28;20314;-83
2021/06/13 08:20:29;;;;;;;8.53;4.47;;;16.00;88.20;;;;;;5094182;28;20191;-82
2021/06/13 08:23:00;;;;;;;8.30;4.20;;;16.30;87.90;;;;;;5095146;28;20200;-83
2021/06/13 08:25:30;;;;;;;6.50;4.00;;;16.50;86.70;;;;;;5084483;28;20233;-84
2021/06/13 08:27:59;;;;;;;5.60;3.90;;;16.60;86.70;;;;;;5079236;28;20208;-83
2021/06/13 08:30:27;;;;;;;10.70;4.50;;;16.90;88.20;;;;;;5077456;28;20246;-83
2021/06/13 08:32:58;;;;;;;14.53;4.50;;;17.10;86.80;;;;;;5081644;28;20214;-83
2021/06/13 08:35:29;;;;;;;8.13;3.90;;;17.30;85.60;;;;;;5070155;28;20511;-85
2021/06/13 08:38:02;;;;;;;9.20;4.23;;;17.50;85.70;;;;;;5071304;28;20228;-83
2021/06/13 08:40:32;;;;;;;7.57;4.30;;;17.50;84.60;;;;;;5074356;28;20290;-84
2021/06/13 08:43:01;;;;;;;8.00;4.10;;;17.20;84.20;;;;;;5074710;28;20265;-84
2021/06/13 08:45:32;;;;;;;7.53;4.33;;;16.90;84.30;;;;;;5076833;28;20231;-87
2021/06/13 08:48:07;;;;;;;7.60;4.17;;;16.70;85.70;;;;;;5073952;28;20208;-83
2021/06/13 08:50:38;;;;;;;8.83;4.90;;;16.60;85.80;;;;;;5070273;28;20211;-84
2021/06/13 08:53:07;;;;;;;9.07;4.20;;;16.30;86.20;;;;;;5069230;28;20681;-84
2021/06/13 08:55:36;;;;;;;11.43;4.63;;;16.00;86.80;;;;;;5068598;28;20228;-83
2021/06/13 08:58:05;;;;;;;11.20;4.80;;;15.90;86.60;;;;;;5067319;28;20555;-83
2021/06/13 09:00:35;;;;;;;6.13;4.10;;;15.80;87.20;;;;;;5068819;28;20208;-85
2021/06/13 09:03:05;;;;;;;8.17;4.43;;;15.70;87.00;;;;;;5071695;28;20209;-81
2021/06/13 09:05:35;;;;;;;8.93;4.60;;;15.50;87.80;;;;;;5065999;28;20201;-83
2021/06/13 09:08:09;;;;;;;8.37;4.40;;;15.60;88.10;;;;;;5067967;28;20638;-82
2021/06/13 09:10:40;;;;;;;10.23;4.60;;;15.70;88.10;;;;;;5070927;28;22427;-85
2021/06/13 09:13:11;;;;;;;8.23;3.90;;;15.70;87.60;;;;;;5079629;28;20200;-81
2021/06/13 09:15:43;;;;;;;8.00;4.33;;;15.70;87.70;;;;;;5093545;28;20282;-83
2021/06/13 09:18:36;;;;;;;11.83;4.73;;;15.70;87.70;;;;;;5076979;28;20728;-84
2021/06/13 09:21:08;;;;;;;6.80;4.67;;;15.60;87.70;;;;;;5080133;28;20819;-82
2021/06/13 09:23:39;;;;;;;13.70;4.70;;;15.60;88.00;;;;;;5074117;28;20231;-83
2021/06/13 09:26:12;;;;;;;8.43;4.60;;;15.70;88.00;;;;;;5078996;28;20228;-81
2021/06/13 09:28:44;;;;;;;10.17;4.67;;;15.70;88.10;;;;;;5075493;28;20571;-82
2021/06/13 09:31:18;;;;;;;11.97;4.90;;;15.70;87.80;;;;;;5071243;28;20451;-83
2021/06/13 09:33:49;;;;;;;9.03;4.30;;;15.70;88.20;;;;;;5070023;28;20601;-84
2021/06/13 09:36:19;;;;;;;11.27;4.87;;;15.60;88.00;;;;;;5064035;28;20624;-84
2021/06/13 09:38:53;;;;;;;6.83;4.70;;;15.70;88.80;;;;;;5063957;28;21035;-82
2021/06/13 09:41:24;;;;;;;6.57;4.03;;;15.80;88.90;;;;;;5067920;28;20783;-83
2021/06/13 09:43:54;;;;;;;8.23;4.50;;;15.90;88.30;;;;;;5065840;28;20305;-84
2021/06/13 09:46:25;;;;;;;8.33;4.53;;;16.00;87.50;;;;;;5077901;28;20248;-82
2021/06/13 09:48:56;;;;;;;9.83;4.67;;;16.00;87.20;;;;;;5062074;28;20895;-83
2021/06/13 09:51:27;;;;;;;9.10;4.60;;;16.10;87.70;;;;;;5067325;28;20216;-83
2021/06/13 09:53:58;;;;;;;8.07;4.57;;;16.30;87.50;;;;;;5068524;28;20736;-83
2021/06/13 09:56:28;;;;;;;7.50;4.47;;;16.50;86.80;;;;;;5080915;28;20643;-85
2021/06/13 09:59:04;;;;;;;12.10;4.37;;;16.60;86.40;;;;;;5072892;28;20212;-82
2021/06/13 10:01:39;;;;;;;8.50;4.43;;;16.60;86.20;;;;;;5074975;28;20200;-80
2021/06/13 10:04:25;;;;;;;9.60;4.77;;;16.80;86.30;;;;;;5075898;28;20200;-85
2021/06/13 10:06:58;;;;;;;8.77;4.40;;;17.00;86.20;;;;;;5069224;28;20229;-81
2021/06/13 10:09:39;;;;;;;10.07;4.40;;;17.10;85.70;;;;;;5072521;28;20212;-82
2021/06/13 10:12:10;;;;;;;9.00;4.83;;;17.20;85.60;;;;;;5086389;28;20200;-83
2021/06/13 10:14:39;;;;;;;10.77;4.80;;;17.20;85.90;;;;;;5093058;28;20193;-84
2021/06/13 10:17:08;;;;;;;7.20;4.70;;;17.30;86.00;;;;;;5091241;28;20213;-83
2021/06/13 10:19:40;;;;;;;9.70;4.50;;;17.10;85.10;;;;;;5075065;28;20274;-82
2021/06/13 10:22:10;;;;;;;9.27;4.40;;;16.80;85.50;;;;;;5081859;28;20361;-83
2021/06/13 10:24:43;;;;;;;8.73;4.87;;;16.70;85.80;;;;;;5078839;28;20215;-84
2021/06/13 10:27:14;;;;;;;8.63;4.53;;;16.70;85.70;;;;;;5086784;28;20226;-86
2021/06/13 10:29:45;;;;;;;8.10;4.10;;;16.80;85.50;;;;;;5078527;28;20996;-85
2021/06/13 10:32:17;;;;;;;13.70;4.10;;;16.90;85.30;;;;;;5073897;28;20319;-83
2021/06/13 10:34:49;;;;;;;8.27;4.20;;;17.00;85.20;;;;;;5095552;28;20192;-83
2021/06/13 10:37:19;;;;;;;8.50;4.63;;;17.00;85.10;;;;;;5092948;28;20181;-84
2021/06/13 10:39:49;;;;;;;10.27;4.77;;;17.00;85.20;;;;;;5095171;28;20299;-84
2021/06/13 10:42:20;;;;;;;8.33;4.10;;;16.90;85.60;;;;;;5104831;28;20181;-83
2021/06/13 10:44:50;;;;;;;6.70;4.40;;;16.90;85.30;;;;;;5095101;28;20177;-84
2021/06/13 10:47:21;;;;;;;7.80;4.70;;;16.70;85.50;;;;;;5098437;28;20224;-84
2021/06/13 10:50:01;;;;;;;11.07;4.97;;;16.60;86.00;;;;;;5086313;28;20216;-84
2021/06/13 10:52:32;;;;;;;7.33;4.53;;;16.80;86.10;;;;;;5087933;28;20211;-84
2021/06/13 10:55:03;;;;;;;8.23;4.43;;;17.00;86.00;;;;;;5073885;28;20206;-84
2021/06/13 10:57:40;;;;;;;7.97;4.50;;;17.20;85.50;;;;;;5069971;28;20297;-83
2021/06/13 11:00:28;;;;;;;8.37;4.10;;;17.30;85.30;;;;;;5076944;28;20745;-82
2021/06/13 11:03:00;;;;;;;8.80;4.80;;;17.50;84.70;;;;;;5075639;28;20201;-85
2021/06/13 11:05:48;;;;;;;9.80;4.70;;;17.60;84.90;;;;;;5075826;28;20279;-82
2021/06/13 11:08:18;;;;;;;8.37;4.10;;;17.80;84.60;;;;;;5073389;28;20228;-84
2021/06/13 11:10:49;;;;;;;7.40;4.60;;;18.30;84.80;;;;;;5073239;28;20625;-82
2021/06/13 11:13:24;;;;;;;7.57;4.20;;;18.70;84.00;;;;;;5077353;28;20284;-86
2021/06/13 11:15:57;;;;;;;7.03;3.90;;;18.70;83.90;;;;;;5076036;28;20212;-83
2021/06/13 11:18:29;;;;;;;7.30;3.70;;;18.80;83.90;;;;;;5071936;28;20212;-84
2021/06/13 11:21:09;;;;;;;8.47;3.70;;;18.80;83.20;;;;;;5073686;28;20208;-82
2021/06/13 11:23:52;;;;;;;8.00;4.00;;;18.80;83.10;;;;;;5079564;28;20216;-85
2021/06/13 11:26:46;;;;;;;8.93;4.23;;;19.00;83.00;;;;;;5076737;28;20251;-84
2021/06/13 11:29:16;;;;;;;7.70;4.37;;;19.10;82.80;;;;;;5074891;28;20205;-84
2021/06/13 11:31:53;;;;;;;6.93;3.80;;;19.30;83.30;;;;;;5073564;28;20217;-83
2021/06/13 11:34:23;;;;;;;6.60;3.90;;;19.40;82.40;;;;;;5081931;28;21123;-82
2021/06/13 11:36:53;;;;;;;6.63;3.73;;;19.60;82.10;;;;;;5082691;28;20216;-80
2021/06/13 11:39:22;;;;;;;7.53;3.80;;;19.20;81.90;;;;;;5086130;28;20420;-85
2021/06/13 11:42:09;;;;;;;6.63;4.13;;;18.80;82.60;;;;;;5084224;28;20239;-84
2021/06/13 11:44:44;;;;;;;8.00;4.60;;;18.30;83.30;;;;;;5074563;28;20282;-82
2021/06/13 11:47:38;;;;;;;6.83;4.03;;;17.80;85.60;;;;;;5071838;28;20295;-84
2021/06/13 11:50:10;;;;;;;8.90;4.13;;;17.60;86.40;;;;;;5071524;28;20208;-83
2021/06/13 11:52:56;;;;;;;6.23;3.40;;;17.50;86.10;;;;;;5082636;28;20786;-83
2021/06/13 11:55:56;;;;;;;7.17;3.83;;;17.50;85.50;;;;;;5082418;28;20208;-85
2021/06/13 11:58:27;;;;;;;5.67;3.27;;;17.70;84.40;;;;;;5078831;28;20211;-84
2021/06/13 12:00:57;;;;;;;6.93;3.37;;;17.90;84.40;;;;;;5078724;28;20200;-84
2021/06/13 12:03:30;;;;;;;6.80;3.47;;;18.20;83.40;;;;;;5075995;28;20239;-84
2021/06/13 12:06:14;;;;;;;6.97;3.20;;;18.50;83.30;;;;;;5077547;28;20201;-84
2021/06/13 12:08:45;;;;;;;7.40;3.67;;;18.90;82.30;;;;;;5067171;28;20231;-83
2021/06/13 12:11:36;;;;;;;6.67;3.10;;;19.10;82.10;;;;;;5074748;28;20201;-81
2021/06/13 12:14:24;;;;;;;5.87;3.30;;;19.20;82.10;;;;;;5075096;28;20202;-85
2021/06/13 12:16:55;;;;;;;4.47;2.37;;;19.40;81.10;;;;;;5087940;28;20211;-83
2021/06/13 12:19:31;;;;;;;5.13;2.90;;;19.30;80.90;;;;;;5095204;28;20416;-83
2021/06/13 12:22:15;;;;;;;4.63;2.90;;;19.10;80.70;;;;;;5074974;28;20184;-85
2021/06/13 12:27:29;;;;;;;6.63;3.67;;;18.10;84.90;;;;;;5060730;28;20249;-83
2021/06/13 12:30:03;;;;;;;10.40;4.37;;;16.60;90.10;;;;;;5086094;28;21373;-84
2021/06/13 12:35:41;;;;;;;7.53;5.20;;;15.60;94.80;;;;;;5088438;28;20466;-84
2021/06/13 12:38:16;;;;;;;11.13;6.03;;;15.70;98.50;;;;;;5085338;28;20387;-85
2021/06/13 12:41:03;;;;;;;12.33;4.33;;;16.10;99.90;;;;;;5083513;28;20229;-81
2021/06/13 12:43:38;;;;;;;8.20;5.00;;;16.50;93.30;;;;;;5090655;28;20200;-86
2021/06/13 12:49:14;;;;;;;6.03;4.50;;;16.40;98.90;;;;;;5085206;28;20235;-86
2021/06/13 12:52:12;;;;;;;12.47;5.37;;;16.20;92.90;;;;;;5087470;28;20209;-82
2021/06/13 13:01:06;;;;;;;8.37;4.70;;;17.00;93.00;;;;;;5094770;28;20204;-86
2021/06/13 13:04:13;;;;;;;8.23;4.37;;;17.50;91.60;;;;;;5095133;28;20196;-85
2021/06/13 13:13:53;;;;;;;4.83;3.40;;;17.80;87.90;;;;;;5093859;28;20206;-84
2021/06/13 13:19:33;;;;;;;6.03;4.00;;;16.40;89.10;;;;;;5088064;28;20246;-85
2021/06/13 13:32:01;;;;;;;5.77;3.40;;;16.90;90.30;;;;;;5091565;28;20306;-85
2021/06/13 13:34:46;;;;;;;4.80;2.93;;;17.50;88.70;;;;;;5075404;28;20197;-82
2021/06/13 13:37:17;;;;;;;5.30;3.57;;;18.00;88.40;;;;;;5070894;28;20252;-84
2021/06/13 13:39:47;;;;;;;4.00;3.17;;;18.20;87.90;;;;;;5076266;28;20272;-85
2021/06/13 13:42:23;;;;;;;6.03;3.50;;;18.80;86.30;;;;;;5078786;28;20647;-85